Time;durP1;ratioP1;P1;durP2;ratioP2;P2;SDS_P1;SDS_P2;PMS_P1;PMS_P2;Temp;Humidity;BMP_temperature;BMP_pressure;BME280_temperature;BME280_humidity;BME280_pressure;Samples;Min_cycle;Max_cycle;Signal;HPM_P1;HPM_P2
2021/09/22 00:02:07;;;;;;;22.08;4.82;;;13.50;99.90;;;;;;5067518;28;20033;-68
2021/09/22 00:04:33;;;;;;;21.38;4.20;;;13.50;99.90;;;;;;5069155;28;20094;-68
2021/09/22 00:06:59;;;;;;;22.45;4.15;;;13.50;99.90;;;;;;5068343;28;20028;-68
2021/09/22 00:09:25;;;;;;;19.98;4.03;;;13.50;99.90;;;;;;5067866;28;20284;-68
2021/09/22 00:11:51;;;;;;;20.65;4.20;;;13.50;99.90;;;;;;5069201;28;20021;-68
2021/09/22 00:14:17;;;;;;;17.67;3.92;;;13.50;99.90;;;;;;5068953;28;20516;-68
2021/09/22 00:16:42;;;;;;;20.10;4.72;;;13.50;99.90;;;;;;5069859;28;20418;-68
2021/09/22 00:19:08;;;;;;;17.80;3.17;;;13.50;99.90;;;;;;5069149;28;20111;-68
2021/09/22 00:21:34;;;;;;;14.75;3.42;;;13.50;99.90;;;;;;5067392;28;20487;-68
2021/09/22 00:24:00;;;;;;;18.85;3.47;;;13.50;99.90;;;;;;5069412;28;20478;-68
2021/09/22 00:26:26;;;;;;;19.02;4.15;;;13.50;99.90;;;;;;5067305;28;20080;-68
2021/09/22 00:28:51;;;;;;;16.17;4.05;;;13.50;99.90;;;;;;5069236;28;20100;-68
2021/09/22 00:31:17;;;;;;;19.75;4.65;;;13.50;99.90;;;;;;5067230;28;20099;-68
2021/09/22 00:33:43;;;;;;;17.10;3.83;;;13.50;99.90;;;;;;5070035;28;20083;-68
2021/09/22 00:36:09;;;;;;;21.35;3.92;;;13.50;99.90;;;;;;5069394;28;20036;-68
2021/09/22 00:38:35;;;;;;;20.13;4.30;;;13.50;99.90;;;;;;5067373;28;20428;-68
2021/09/22 00:41:00;;;;;;;17.52;3.80;;;13.40;99.90;;;;;;5067943;28;20085;-68
2021/09/22 00:43:26;;;;;;;20.13;3.80;;;13.40;99.90;;;;;;5068510;28;20112;-68
2021/09/22 00:45:52;;;;;;;20.00;3.50;;;13.40;99.90;;;;;;5069451;28;20036;-68
2021/09/22 00:48:18;;;;;;;15.27;3.60;;;13.40;99.90;;;;;;5070118;28;20056;-68
2021/09/22 00:50:44;;;;;;;18.15;3.72;;;13.40;99.90;;;;;;5067012;28;20473;-68
2021/09/22 00:53:10;;;;;;;21.33;4.32;;;13.40;99.90;;;;;;5068810;28;20422;-68
2021/09/22 00:55:38;;;;;;;16.50;3.53;;;13.40;99.90;;;;;;5069844;28;20081;-68
2021/09/22 00:58:08;;;;;;;17.35;3.95;;;13.30;99.90;;;;;;5068130;28;20087;-68
2021/09/22 01:00:37;;;;;;;21.42;3.90;;;13.30;99.90;;;;;;5067933;28;20032;-68
2021/09/22 01:03:07;;;;;;;18.75;3.60;;;13.30;99.90;;;;;;5068591;28;20025;-68
2021/09/22 01:05:33;;;;;;;26.15;4.15;;;13.30;99.90;;;;;;5067791;28;20032;-68
2021/09/22 01:07:59;;;;;;;16.95;4.15;;;13.30;99.90;;;;;;5067706;28;20498;-68
2021/09/22 01:10:25;;;;;;;20.45;3.80;;;13.30;99.90;;;;;;5067547;28;20029;-68
2021/09/22 01:12:51;;;;;;;18.95;3.78;;;13.30;99.90;;;;;;5067727;28;20021;-68
2021/09/22 01:15:36;;;;;;;22.38;3.90;;;13.20;99.90;;;;;;5069342;28;20028;-68
2021/09/22 01:18:01;;;;;;;14.77;4.47;;;13.20;99.90;;;;;;5065701;28;20058;-68
2021/09/22 01:20:30;;;;;;;14.90;3.53;;;13.20;99.90;;;;;;5068867;28;20036;-68
2021/09/22 01:22:57;;;;;;;17.05;3.63;;;13.20;99.90;;;;;;5069230;28;20040;-68
2021/09/22 01:25:23;;;;;;;22.83;3.33;;;13.20;99.90;;;;;;5066147;28;20037;-68
2021/09/22 01:27:53;;;;;;;19.67;4.03;;;13.20;99.90;;;;;;5065443;28;20116;-68
2021/09/22 01:30:19;;;;;;;16.35;3.38;;;13.30;99.90;;;;;;5067338;28;20133;-68
2021/09/22 01:32:53;;;;;;;14.98;3.85;;;13.20;99.90;;;;;;5065815;28;20021;-68
2021/09/22 01:35:19;;;;;;;15.50;3.60;;;13.20;99.90;;;;;;5066975;28;20028;-68
2021/09/22 01:37:45;;;;;;;12.30;2.70;;;13.20;99.90;;;;;;5068744;28;20021;-68
2021/09/22 01:40:12;;;;;;;16.75;4.10;;;13.20;99.90;;;;;;5066160;28;20063;-68
2021/09/22 01:42:38;;;;;;;17.55;3.10;;;13.20;99.90;;;;;;5065994;28;20033;-68
2021/09/22 01:45:09;;;;;;;18.15;4.28;;;13.10;99.90;;;;;;5067139;28;20033;-68
2021/09/22 01:47:35;;;;;;;17.20;3.17;;;13.10;99.90;;;;;;5066725;28;20036;-68
2021/09/22 01:50:10;;;;;;;13.75;3.80;;;13.00;99.90;;;;;;5069392;28;20012;-68
2021/09/22 01:52:37;;;;;;;19.13;3.60;;;13.00;99.90;;;;;;5067209;28;20097;-68
2021/09/22 01:55:05;;;;;;;18.42;3.47;;;13.00;99.90;;;;;;5067245;28;20028;-68
2021/09/22 01:57:31;;;;;;;16.90;3.40;;;13.00;99.90;;;;;;5067275;28;20082;-68
2021/09/22 01:59:57;;;;;;;14.73;3.60;;;13.00;99.90;;;;;;5064965;28;20039;-68
2021/09/22 02:02:23;;;;;;;16.63;3.60;;;13.00;99.90;;;;;;5065605;28;20021;-68
2021/09/22 02:04:49;;;;;;;17.95;3.90;;;13.00;99.90;;;;;;5067455;28;20028;-68
2021/09/22 02:07:15;;;;;;;19.02;3.53;;;13.00;99.90;;;;;;5067163;28;20521;-69
2021/09/22 02:09:41;;;;;;;20.25;4.10;;;13.00;99.90;;;;;;5066930;28;20116;-68
2021/09/22 02:12:07;;;;;;;15.88;3.33;;;13.00;99.90;;;;;;5066793;28;20550;-68
2021/09/22 02:14:33;;;;;;;15.55;3.28;;;13.00;99.90;;;;;;5065762;28;20040;-68
2021/09/22 02:16:58;;;;;;;20.45;4.82;;;12.90;99.90;;;;;;5066511;28;20074;-69
2021/09/22 02:19:25;;;;;;;19.27;3.95;;;12.90;99.90;;;;;;5065884;28;20103;-68
2021/09/22 02:21:51;;;;;;;17.50;3.95;;;12.90;99.90;;;;;;5065666;28;20066;-68
2021/09/22 02:24:17;;;;;;;21.23;3.85;;;12.90;99.90;;;;;;5066193;28;20402;-68
2021/09/22 02:26:43;;;;;;;18.40;3.75;;;12.90;99.90;;;;;;5066829;28;20115;-68
2021/09/22 02:29:08;;;;;;;16.25;4.20;;;12.80;99.90;;;;;;5066178;28;20155;-69
2021/09/22 02:31:34;;;;;;;19.65;4.18;;;12.90;99.90;;;;;;5066825;28;20089;-69
2021/09/22 02:34:00;;;;;;;12.95;3.20;;;12.90;99.90;;;;;;5065798;28;20024;-69
2021/09/22 02:36:26;;;;;;;12.82;3.63;;;12.80;99.90;;;;;;5066567;28;20479;-68
2021/09/22 02:38:52;;;;;;;19.63;4.05;;;12.80;99.90;;;;;;5064999;28;20111;-68
2021/09/22 02:41:19;;;;;;;14.60;3.25;;;12.90;99.90;;;;;;5064861;28;20120;-69
2021/09/22 02:43:44;;;;;;;16.95;3.47;;;12.90;99.90;;;;;;5063911;28;20029;-68
2021/09/22 02:46:10;;;;;;;16.42;4.70;;;12.90;99.90;;;;;;5065904;28;20027;-69
2021/09/22 02:48:36;;;;;;;17.98;3.60;;;12.80;99.90;;;;;;5065511;28;20024;-68
2021/09/22 02:51:02;;;;;;;16.98;3.97;;;12.80;99.90;;;;;;5065621;28;20029;-68
2021/09/22 02:53:31;;;;;;;13.98;3.55;;;12.90;99.90;;;;;;5065779;28;20060;-68
2021/09/22 02:55:57;;;;;;;13.35;3.65;;;12.80;99.90;;;;;;5064927;28;20055;-68
2021/09/22 02:58:23;;;;;;;13.80;3.33;;;12.80;99.90;;;;;;5064904;28;20482;-68
2021/09/22 03:00:48;;;;;;;17.92;3.85;;;12.80;99.90;;;;;;5067249;28;20120;-69
2021/09/22 03:03:17;;;;;;;18.33;4.05;;;12.80;99.90;;;;;;5065193;28;20028;-69
2021/09/22 03:05:43;;;;;;;15.18;3.75;;;12.80;99.90;;;;;;5068654;28;20064;-69
2021/09/22 03:08:09;;;;;;;13.50;3.15;;;12.70;99.90;;;;;;5068300;28;20059;-68
2021/09/22 03:10:35;;;;;;;10.23;2.53;;;12.70;99.90;;;;;;5065067;28;20028;-68
2021/09/22 03:13:01;;;;;;;11.38;3.55;;;12.70;99.90;;;;;;5064430;28;20020;-68
2021/09/22 03:15:27;;;;;;;17.08;3.83;;;12.70;99.90;;;;;;5066369;28;20056;-68
2021/09/22 03:17:52;;;;;;;14.43;2.88;;;12.70;99.90;;;;;;5064241;28;20398;-68
2021/09/22 03:20:18;;;;;;;15.80;3.25;;;12.70;99.90;;;;;;5065476;28;20024;-69
2021/09/22 03:22:44;;;;;;;21.17;3.78;;;12.70;99.90;;;;;;5064643;28;20028;-68
2021/09/22 03:25:10;;;;;;;11.48;3.33;;;12.70;99.90;;;;;;5066086;28;20032;-68
2021/09/22 03:27:37;;;;;;;12.00;3.42;;;12.70;99.90;;;;;;5063993;28;20081;-68
2021/09/22 03:30:05;;;;;;;18.08;3.40;;;12.70;99.90;;;;;;5064533;28;20503;-69
2021/09/22 03:32:31;;;;;;;10.35;2.80;;;12.70;99.90;;;;;;5065380;28;20107;-68
2021/09/22 03:34:56;;;;;;;15.45;3.17;;;12.70;99.90;;;;;;5063841;28;20155;-68
2021/09/22 03:37:23;;;;;;;13.50;3.75;;;12.70;99.90;;;;;;5065965;28;20033;-68
2021/09/22 03:39:48;;;;;;;15.05;3.40;;;12.70;99.90;;;;;;5066126;28;20138;-68
2021/09/22 03:42:15;;;;;;;13.43;2.83;;;12.70;99.90;;;;;;5064396;28;20514;-68
2021/09/22 03:44:41;;;;;;;12.85;3.05;;;12.70;99.90;;;;;;5066641;28;20040;-68
2021/09/22 03:47:07;;;;;;;11.68;3.33;;;12.70;99.90;;;;;;5065533;28;20020;-68
2021/09/22 03:49:33;;;;;;;15.98;3.25;;;12.70;99.90;;;;;;5065075;28;20031;-69
2021/09/22 03:51:58;;;;;;;14.10;3.67;;;12.70;99.90;;;;;;5065665;28;20023;-69
2021/09/22 03:54:24;;;;;;;14.98;3.95;;;12.70;99.90;;;;;;5065261;28;20047;-68
2021/09/22 03:56:50;;;;;;;16.25;3.88;;;12.70;99.90;;;;;;5063446;28;20024;-68
2021/09/22 03:59:16;;;;;;;16.15;3.78;;;12.70;99.90;;;;;;5065863;28;20638;-68
2021/09/22 04:01:42;;;;;;;11.93;3.22;;;12.80;99.90;;;;;;5060683;28;20032;-69
2021/09/22 04:04:07;;;;;;;13.10;3.20;;;12.80;99.90;;;;;;5065389;28;20082;-68
2021/09/22 04:06:33;;;;;;;15.45;3.20;;;12.80;99.90;;;;;;5065704;28;20054;-68
2021/09/22 04:08:59;;;;;;;13.50;3.80;;;12.80;99.90;;;;;;5065222;28;20040;-68
2021/09/22 04:11:25;;;;;;;10.50;3.40;;;12.80;99.90;;;;;;5065089;28;20431;-68
2021/09/22 04:13:50;;;;;;;14.82;3.30;;;12.80;99.90;;;;;;5063723;28;20428;-69
2021/09/22 04:16:16;;;;;;;11.00;3.42;;;12.90;99.90;;;;;;5067117;28;20032;-68
2021/09/22 04:18:42;;;;;;;10.45;2.80;;;12.90;99.90;;;;;;5065010;28;20049;-68
2021/09/22 04:21:07;;;;;;;11.98;3.33;;;12.90;99.90;;;;;;5064897;28;20028;-69
2021/09/22 04:23:33;;;;;;;15.73;3.65;;;12.90;99.90;;;;;;5065099;28;20029;-68
2021/09/22 04:25:59;;;;;;;10.77;3.28;;;12.90;99.90;;;;;;5063426;28;20025;-69
2021/09/22 04:28:24;;;;;;;14.35;3.40;;;12.90;99.90;;;;;;5064276;28;20025;-68
2021/09/22 04:30:50;;;;;;;11.38;3.33;;;12.90;99.90;;;;;;5065219;28;20112;-69
2021/09/22 04:33:16;;;;;;;12.43;3.25;;;12.80;99.90;;;;;;5061664;28;20067;-69
2021/09/22 04:35:42;;;;;;;12.82;2.75;;;12.80;99.90;;;;;;5058940;28;20024;-69
2021/09/22 04:38:09;;;;;;;16.80;3.55;;;12.80;99.90;;;;;;5062611;28;20024;-68
2021/09/22 04:40:34;;;;;;;15.55;3.63;;;12.80;99.90;;;;;;5061779;28;20026;-68
2021/09/22 04:43:01;;;;;;;17.92;3.40;;;12.70;99.90;;;;;;5061567;28;20035;-68
2021/09/22 04:45:28;;;;;;;13.90;3.60;;;12.70;99.90;;;;;;5063265;28;20054;-68
2021/09/22 04:47:55;;;;;;;13.18;3.10;;;12.70;99.90;;;;;;5066283;28;20054;-69
2021/09/22 04:50:23;;;;;;;13.35;3.17;;;12.70;99.90;;;;;;5067555;28;20028;-68
2021/09/22 04:52:50;;;;;;;16.67;3.75;;;12.70;99.90;;;;;;5062342;28;20044;-71
2021/09/22 04:55:15;;;;;;;16.58;3.58;;;12.70;99.90;;;;;;5067192;28;20048;-68
2021/09/22 04:57:41;;;;;;;13.80;3.50;;;12.70;99.90;;;;;;5065211;28;20507;-69
2021/09/22 05:00:08;;;;;;;18.83;3.50;;;12.70;99.90;;;;;;5068951;28;20040;-69
2021/09/22 05:02:34;;;;;;;14.30;3.65;;;12.70;99.90;;;;;;5064559;28;20390;-68
2021/09/22 05:05:00;;;;;;;15.95;3.42;;;12.70;99.90;;;;;;5066230;28;20086;-69
2021/09/22 05:07:25;;;;;;;11.95;3.17;;;12.70;99.90;;;;;;5065399;28;20017;-68
2021/09/22 05:09:51;;;;;;;17.98;3.80;;;12.60;99.90;;;;;;5071374;28;20025;-68
2021/09/22 05:12:17;;;;;;;11.82;3.55;;;12.60;99.90;;;;;;5070313;28;20075;-69
2021/09/22 05:14:44;;;;;;;10.98;3.58;;;12.60;99.90;;;;;;5066172;28;20041;-69
2021/09/22 05:17:10;;;;;;;15.25;4.00;;;12.60;99.90;;;;;;5064387;28;20115;-69
2021/09/22 05:19:36;;;;;;;12.95;3.42;;;12.70;99.90;;;;;;5065531;28;20112;-68
2021/09/22 05:22:02;;;;;;;18.52;3.65;;;12.70;99.90;;;;;;5066632;28;20123;-68
2021/09/22 05:24:27;;;;;;;15.48;3.70;;;12.60;99.90;;;;;;5065730;28;20080;-69
2021/09/22 05:26:53;;;;;;;14.63;3.60;;;12.60;99.90;;;;;;5064317;28;20120;-72
2021/09/22 05:29:19;;;;;;;14.18;4.43;;;12.60;99.90;;;;;;5064736;28;20040;-70
2021/09/22 05:31:45;;;;;;;12.63;3.25;;;12.60;99.90;;;;;;5068070;28;20024;-69
2021/09/22 05:34:10;;;;;;;12.48;4.07;;;12.60;99.90;;;;;;5069783;28;20024;-69
2021/09/22 05:36:36;;;;;;;18.67;3.78;;;12.60;99.90;;;;;;5066990;28;20078;-70
2021/09/22 05:39:03;;;;;;;16.48;4.38;;;12.60;99.90;;;;;;5068154;28;20546;-69
2021/09/22 05:41:28;;;;;;;25.17;4.72;;;12.60;99.90;;;;;;5065128;28;20032;-69
2021/09/22 05:43:54;;;;;;;17.42;4.50;;;12.70;99.90;;;;;;5070808;28;20479;-69
2021/09/22 05:46:20;;;;;;;22.98;4.30;;;12.60;99.90;;;;;;5065100;28;20027;-69
2021/09/22 05:48:45;;;;;;;16.42;4.30;;;12.70;99.90;;;;;;5066582;28;20027;-69
2021/09/22 05:51:11;;;;;;;18.83;4.40;;;12.70;99.90;;;;;;5067201;28;20028;-69
2021/09/22 05:53:38;;;;;;;15.70;3.58;;;12.60;99.90;;;;;;5068000;28;20133;-69
2021/09/22 05:56:04;;;;;;;13.30;3.70;;;12.70;99.90;;;;;;5068188;28;20040;-69
2021/09/22 05:58:30;;;;;;;17.95;3.80;;;12.70;99.90;;;;;;5066685;28;20103;-68
2021/09/22 06:00:57;;;;;;;12.35;4.40;;;12.70;99.90;;;;;;5068895;28;20601;-69
2021/09/22 06:03:22;;;;;;;11.23;3.67;;;12.70;99.90;;;;;;5067583;28;20043;-68
2021/09/22 06:05:48;;;;;;;22.52;3.70;;;12.70;99.90;;;;;;5067120;28;20024;-68
2021/09/22 06:08:14;;;;;;;16.38;4.85;;;12.80;99.90;;;;;;5066491;28;20028;-70
2021/09/22 06:10:39;;;;;;;14.32;4.47;;;12.80;99.90;;;;;;5068605;28;20075;-69
2021/09/22 06:13:05;;;;;;;13.40;4.18;;;12.80;99.90;;;;;;5065968;28;20447;-69
2021/09/22 06:15:31;;;;;;;13.00;4.18;;;12.80;99.90;;;;;;5063130;28;20039;-68
2021/09/22 06:17:57;;;;;;;11.60;4.55;;;12.80;99.90;;;;;;5060292;28;20101;-69
2021/09/22 06:20:23;;;;;;;14.57;5.03;;;12.80;99.90;;;;;;5054588;28;20574;-70
2021/09/22 06:22:49;;;;;;;11.52;4.45;;;12.80;99.90;;;;;;5063619;28;20025;-70
2021/09/22 06:25:16;;;;;;;18.90;5.00;;;12.90;99.90;;;;;;5064883;28;20051;-69
2021/09/22 06:27:42;;;;;;;17.90;5.50;;;12.90;99.90;;;;;;5069174;28;20103;-69
2021/09/22 06:30:09;;;;;;;13.45;5.10;;;12.90;99.90;;;;;;5065866;28;20462;-69
2021/09/22 06:32:36;;;;;;;15.18;5.47;;;12.90;99.90;;;;;;5065184;28;20407;-68
2021/09/22 06:35:02;;;;;;;14.05;4.78;;;12.90;99.90;;;;;;5066765;28;20073;-69
2021/09/22 06:37:28;;;;;;;16.10;5.50;;;13.00;99.90;;;;;;5063638;28;20028;-68
2021/09/22 06:39:54;;;;;;;17.15;5.68;;;13.00;99.90;;;;;;5067453;28;20032;-69
2021/09/22 06:42:19;;;;;;;18.42;6.30;;;13.00;99.90;;;;;;5065856;28;20036;-69
2021/09/22 06:44:45;;;;;;;17.88;6.53;;;13.10;99.90;;;;;;5063453;28;20173;-69
2021/09/22 06:47:11;;;;;;;15.77;6.45;;;13.10;99.90;;;;;;5061319;28;20016;-69
2021/09/22 06:49:36;;;;;;;13.60;6.20;;;13.20;99.90;;;;;;5067054;28;20241;-69
2021/09/22 06:52:02;;;;;;;15.30;6.70;;;13.20;99.90;;;;;;5065825;28;20079;-68
2021/09/22 06:54:28;;;;;;;16.33;7.78;;;13.20;99.90;;;;;;5062753;28;20449;-68
2021/09/22 06:56:54;;;;;;;16.50;7.88;;;13.20;99.90;;;;;;5063204;28;20052;-68
2021/09/22 06:59:20;;;;;;;17.80;7.82;;;13.30;99.90;;;;;;5066690;28;20036;-68
2021/09/22 07:01:45;;;;;;;18.85;7.97;;;13.30;99.90;;;;;;5062792;28;20028;-68
2021/09/22 07:04:11;;;;;;;21.23;8.32;;;13.30;99.90;;;;;;5066756;28;20444;-68
2021/09/22 07:06:37;;;;;;;20.15;8.50;;;13.30;99.90;;;;;;5063988;28;20032;-68
2021/09/22 07:09:03;;;;;;;19.67;9.57;;;13.40;99.90;;;;;;5065205;28;20037;-68
2021/09/22 07:11:28;;;;;;;18.30;9.85;;;13.40;99.90;;;;;;5068650;28;20478;-68
2021/09/22 07:13:54;;;;;;;22.33;9.68;;;13.40;99.90;;;;;;5065565;28;20031;-68
2021/09/22 07:16:20;;;;;;;21.27;10.07;;;13.50;99.90;;;;;;5066132;28;20026;-68
2021/09/22 07:18:46;;;;;;;26.23;10.85;;;13.60;99.90;;;;;;5067456;28;20037;-68
2021/09/22 07:21:14;;;;;;;24.30;9.90;;;13.60;99.90;;;;;;5067664;28;20340;-68
2021/09/22 07:23:40;;;;;;;19.80;9.20;;;13.60;99.90;;;;;;5067435;28;20383;-68
2021/09/22 07:26:07;;;;;;;23.52;10.38;;;13.60;99.90;;;;;;5068309;28;20131;-68
2021/09/22 07:28:34;;;;;;;17.15;9.30;;;13.70;99.90;;;;;;5064132;28;20629;-68
2021/09/22 07:31:00;;;;;;;13.85;7.65;;;13.70;99.90;;;;;;5067025;28;20025;-68
2021/09/22 07:33:26;;;;;;;19.42;8.05;;;13.70;99.90;;;;;;5061704;28;20059;-68
2021/09/22 07:35:52;;;;;;;16.50;7.43;;;13.70;99.90;;;;;;5064136;28;20090;-68
2021/09/22 07:38:18;;;;;;;16.52;7.85;;;13.70;99.90;;;;;;5065648;28;20074;-68
2021/09/22 07:40:44;;;;;;;17.70;7.47;;;13.70;99.90;;;;;;5068608;28;20040;-68
2021/09/22 07:43:10;;;;;;;16.02;8.73;;;13.70;99.90;;;;;;5066284;28;20036;-68
2021/09/22 07:45:37;;;;;;;17.73;8.90;;;13.80;99.90;;;;;;5066858;28;20025;-68
2021/09/22 07:48:03;;;;;;;17.20;8.60;;;13.80;99.90;;;;;;5065507;28;20495;-68
2021/09/22 07:50:29;;;;;;;17.98;8.82;;;13.80;99.90;;;;;;5063770;28;20035;-69
2021/09/22 07:52:54;;;;;;;21.27;9.07;;;13.90;99.90;;;;;;5064792;28;20020;-68
2021/09/22 07:55:20;;;;;;;18.45;9.05;;;13.90;99.90;;;;;;5065487;28;20034;-68
2021/09/22 07:57:48;;;;;;;11.15;7.07;;;14.00;99.90;;;;;;5063423;28;20446;-68
2021/09/22 08:00:14;;;;;;;18.13;7.05;;;14.00;99.90;;;;;;5064807;28;20040;-69
2021/09/22 08:02:41;;;;;;;25.48;9.90;;;14.00;99.90;;;;;;5064767;28;20036;-69
2021/09/22 08:05:08;;;;;;;15.70;7.47;;;14.00;99.90;;;;;;5064711;28;20107;-68
2021/09/22 08:07:33;;;;;;;16.73;7.97;;;13.90;99.90;;;;;;5061935;28;20064;-68
2021/09/22 08:09:59;;;;;;;16.33;7.47;;;14.00;99.90;;;;;;5065496;28;20059;-68
2021/09/22 08:12:25;;;;;;;14.88;7.32;;;14.00;99.90;;;;;;5064472;28;20060;-68
2021/09/22 08:14:50;;;;;;;13.10;6.47;;;14.10;99.90;;;;;;5060492;28;20131;-68
2021/09/22 08:17:18;;;;;;;12.48;6.20;;;14.10;99.90;;;;;;5066707;28;20068;-68
2021/09/22 08:19:44;;;;;;;10.40;6.45;;;14.20;99.90;;;;;;5065968;28;20036;-68
2021/09/22 08:22:10;;;;;;;18.42;8.23;;;14.30;99.90;;;;;;5069639;28;20043;-69
2021/09/22 08:24:37;;;;;;;15.70;7.03;;;14.30;99.90;;;;;;5070381;28;20087;-68
2021/09/22 08:27:04;;;;;;;16.10;7.50;;;14.40;99.90;;;;;;5070199;28;20029;-68
2021/09/22 08:29:33;;;;;;;16.48;8.15;;;14.40;99.90;;;;;;5069880;28;20025;-68
2021/09/22 08:31:59;;;;;;;14.98;7.53;;;14.60;99.90;;;;;;5069098;28;20619;-68
2021/09/22 08:34:26;;;;;;;17.00;8.60;;;14.70;99.90;;;;;;5070104;28;20044;-69
2021/09/22 08:36:52;;;;;;;16.60;7.80;;;14.90;99.90;;;;;;5067702;28;20025;-69
2021/09/22 08:39:19;;;;;;;14.90;8.40;;;15.00;99.90;;;;;;5068580;28;20040;-68
2021/09/22 08:41:45;;;;;;;17.17;7.88;;;15.00;99.90;;;;;;5068447;28;20070;-69
2021/09/22 08:44:13;;;;;;;20.00;9.48;;;15.00;99.90;;;;;;5068817;28;20032;-68
2021/09/22 08:46:40;;;;;;;15.27;8.55;;;15.00;99.90;;;;;;5069109;28;20101;-68
2021/09/22 08:49:07;;;;;;;17.67;8.05;;;14.90;99.90;;;;;;5069215;28;20039;-69
2021/09/22 08:51:34;;;;;;;14.77;7.60;;;14.90;99.90;;;;;;5069585;28;20028;-68
2021/09/22 08:54:01;;;;;;;13.30;7.68;;;14.90;99.90;;;;;;5068611;28;20033;-68
2021/09/22 08:56:27;;;;;;;13.93;6.82;;;15.00;99.90;;;;;;5069096;28;20488;-68
2021/09/22 08:58:54;;;;;;;14.32;7.13;;;15.00;99.90;;;;;;5066607;28;20032;-68
2021/09/22 09:01:21;;;;;;;12.30;6.15;;;15.10;99.90;;;;;;5064847;28;20033;-68
2021/09/22 09:03:50;;;;;;;18.73;7.07;;;15.20;99.90;;;;;;5062066;28;20044;-68
2021/09/22 09:06:21;;;;;;;10.82;6.05;;;15.30;99.90;;;;;;5062467;28;20159;-68
2021/09/22 09:08:48;;;;;;;11.77;6.20;;;15.30;99.90;;;;;;5061088;28;20020;-68
2021/09/22 09:11:14;;;;;;;11.85;6.13;;;15.40;99.90;;;;;;5067660;28;20040;-68
2021/09/22 09:13:51;;;;;;;12.65;6.20;;;15.60;99.90;;;;;;5062154;28;20036;-68
2021/09/22 09:16:18;;;;;;;12.55;5.47;;;15.60;99.90;;;;;;5068033;28;20029;-69
2021/09/22 09:18:54;;;;;;;10.80;4.57;;;15.70;99.90;;;;;;5061980;28;20107;-68
2021/09/22 09:21:21;;;;;;;15.93;6.68;;;15.80;99.90;;;;;;5062636;28;20029;-68
2021/09/22 09:23:55;;;;;;;11.05;5.40;;;15.90;99.90;;;;;;5061671;28;20059;-70
2021/09/22 09:26:27;;;;;;;10.82;5.43;;;16.10;99.90;;;;;;5069400;28;20020;-68
2021/09/22 09:28:58;;;;;;;9.88;4.43;;;16.30;99.90;;;;;;5063073;28;20036;-68
2021/09/22 09:31:32;;;;;;;11.40;5.22;;;16.40;99.90;;;;;;5063174;28;20025;-68
2021/09/22 09:34:01;;;;;;;6.85;4.43;;;16.50;99.90;;;;;;5061120;28;20360;-68
2021/09/22 09:36:33;;;;;;;9.38;4.95;;;16.50;99.80;;;;;;5059985;28;20036;-68
2021/09/22 09:39:11;;;;;;;13.95;6.57;;;16.60;99.80;;;;;;5069080;28;20503;-68
2021/09/22 09:41:51;;;;;;;12.45;5.25;;;16.70;99.70;;;;;;5068221;28;20107;-69
2021/09/22 09:44:23;;;;;;;14.60;6.97;;;16.80;99.60;;;;;;5069072;28;20032;-68
2021/09/22 09:46:51;;;;;;;10.93;5.78;;;16.90;99.30;;;;;;5066141;28;20025;-68
2021/09/22 09:49:24;;;;;;;13.32;7.78;;;16.90;99.10;;;;;;5069573;28;20042;-68
2021/09/22 09:51:54;;;;;;;10.10;6.00;;;16.90;99.00;;;;;;5063088;28;20028;-69
2021/09/22 09:54:21;;;;;;;12.15;7.32;;;16.90;99.00;;;;;;5064584;28;20107;-68
2021/09/22 09:56:49;;;;;;;10.75;5.68;;;16.90;98.90;;;;;;5067890;28;20021;-68
2021/09/22 09:59:16;;;;;;;10.52;5.38;;;16.90;99.20;;;;;;5069725;28;20048;-69
2021/09/22 10:01:46;;;;;;;11.73;5.40;;;17.00;99.30;;;;;;5066616;28;20024;-69
2021/09/22 10:04:15;;;;;;;7.53;3.95;;;17.10;99.10;;;;;;5067804;28;20391;-68
2021/09/22 10:06:43;;;;;;;9.27;4.32;;;17.10;98.30;;;;;;5067899;28;20123;-69
2021/09/22 10:09:09;;;;;;;8.07;4.32;;;17.20;98.30;;;;;;5069436;28;20149;-69
2021/09/22 10:11:36;;;;;;;12.63;4.43;;;17.20;98.10;;;;;;5068184;28;20025;-68
2021/09/22 10:14:05;;;;;;;9.27;4.35;;;17.20;97.90;;;;;;5068753;28;20040;-68
2021/09/22 10:16:33;;;;;;;11.00;4.00;;;17.30;97.70;;;;;;5068970;28;20094;-68
2021/09/22 10:18:59;;;;;;;12.15;4.65;;;17.40;97.40;;;;;;5066671;28;20036;-68
2021/09/22 10:21:26;;;;;;;8.32;4.20;;;17.40;97.10;;;;;;5065868;28;20067;-68
2021/09/22 10:23:53;;;;;;;10.05;4.15;;;17.50;97.20;;;;;;5065542;28;20032;-69
2021/09/22 10:26:20;;;;;;;10.23;3.95;;;17.50;97.20;;;;;;5068387;28;20036;-69
2021/09/22 10:28:47;;;;;;;9.80;4.22;;;17.60;97.00;;;;;;5067443;28;20032;-68
2021/09/22 10:31:27;;;;;;;10.75;3.78;;;17.80;96.70;;;;;;5069331;28;20032;-68
2021/09/22 10:33:53;;;;;;;12.07;4.78;;;17.90;96.50;;;;;;5065443;28;20111;-68
2021/09/22 10:36:33;;;;;;;7.50;3.47;;;18.00;96.00;;;;;;5067764;28;20162;-68
2021/09/22 10:38:59;;;;;;;10.45;3.88;;;17.90;96.00;;;;;;5068409;28;20386;-68
2021/09/22 10:41:30;;;;;;;8.68;3.75;;;17.70;95.60;;;;;;5068863;28;20035;-68
2021/09/22 10:43:57;;;;;;;7.85;4.28;;;17.60;95.90;;;;;;5067227;28;20039;-68
2021/09/22 10:46:23;;;;;;;10.45;3.20;;;17.70;95.90;;;;;;5067875;28;20028;-68
2021/09/22 10:48:51;;;;;;;10.90;3.97;;;17.80;95.00;;;;;;5069131;28;20043;-68
2021/09/22 10:51:32;;;;;;;9.10;3.53;;;17.80;95.10;;;;;;5067956;28;20028;-68
2021/09/22 10:54:10;;;;;;;8.60;3.08;;;17.90;95.20;;;;;;5066499;28;20025;-69
2021/09/22 10:56:52;;;;;;;9.57;1.90;;;18.30;96.20;;;;;;5067433;28;20491;-68
2021/09/22 10:59:38;;;;;;;10.05;2.60;;;18.80;94.20;;;;;;5066734;28;20032;-69
2021/09/22 11:02:07;;;;;;;9.38;2.25;;;20.00;93.10;;;;;;5066792;28;20068;-69
2021/09/22 11:05:13;;;;;;;8.10;3.10;;;21.10;90.40;;;;;;5064645;28;20036;-68
2021/09/22 11:08:12;;;;;;;5.30;2.50;;;23.30;82.60;;;;;;5044551;28;20383;-68
2021/09/22 11:10:53;;;;;;;5.30;1.95;;;25.30;73.50;;;;;;5012023;28;20041;-69
2021/09/22 11:13:19;;;;;;;5.50;2.60;;;27.00;68.50;;;;;;5045629;28;20072;-70
2021/09/22 11:15:54;;;;;;;6.30;2.47;;;27.20;62.70;;;;;;5047730;28;20053;-69
2021/09/22 11:18:21;;;;;;;3.78;1.92;;;27.00;63.20;;;;;;5045696;28;20365;-69
2021/09/22 11:21:01;;;;;;;6.38;2.42;;;28.00;61.70;;;;;;5043228;28;20036;-68
2021/09/22 11:23:29;;;;;;;6.63;2.20;;;29.20;56.50;;;;;;5045090;28;20075;-69
2021/09/22 11:26:07;;;;;;;5.50;2.35;;;30.30;56.00;;;;;;5045168;28;20048;-69
2021/09/22 11:28:33;;;;;;;5.70;2.15;;;30.30;51.90;;;;;;5044349;28;20032;-68
2021/09/22 11:30:59;;;;;;;5.97;2.20;;;29.50;52.00;;;;;;5045965;28;20079;-68
2021/09/22 11:33:26;;;;;;;6.30;2.20;;;28.50;55.60;;;;;;5045726;28;20037;-68
2021/09/22 11:35:52;;;;;;;5.90;2.22;;;27.40;57.20;;;;;;5046714;28;20155;-68
2021/09/22 11:38:19;;;;;;;5.78;2.30;;;26.10;57.00;;;;;;5054401;28;20482;-68
2021/09/22 11:40:46;;;;;;;7.47;2.55;;;25.40;62.60;;;;;;5065595;28;20028;-68
2021/09/22 11:43:15;;;;;;;7.18;2.28;;;24.80;63.40;;;;;;5065048;28;20020;-68
2021/09/22 11:45:57;;;;;;;5.70;2.40;;;24.50;64.70;;;;;;5056050;28;20424;-68
2021/09/22 11:48:32;;;;;;;6.80;2.53;;;24.00;65.10;;;;;;5059997;28;20040;-68
2021/09/22 11:50:59;;;;;;;9.02;3.15;;;23.60;67.30;;;;;;5058433;28;20021;-68
2021/09/22 11:53:30;;;;;;;10.82;2.65;;;23.10;68.20;;;;;;5060356;28;20402;-68
2021/09/22 11:55:56;;;;;;;6.95;2.13;;;22.70;70.30;;;;;;5065469;28;20108;-68
2021/09/22 11:58:25;;;;;;;6.63;2.20;;;22.50;70.10;;;;;;5067585;28;20031;-68
2021/09/22 12:00:55;;;;;;;6.65;2.05;;;22.30;71.20;;;;;;5064352;28;20036;-68
2021/09/22 12:03:23;;;;;;;5.43;1.98;;;22.20;72.10;;;;;;5062745;28;20032;-69
2021/09/22 12:06:03;;;;;;;6.45;2.00;;;22.10;71.80;;;;;;5065759;28;20036;-68
2021/09/22 12:08:31;;;;;;;5.43;1.70;;;22.00;73.10;;;;;;5069963;28;20121;-68
2021/09/22 12:10:58;;;;;;;8.00;2.08;;;21.90;73.80;;;;;;5061793;28;20027;-69
2021/09/22 12:13:23;;;;;;;6.05;1.52;;;22.00;74.80;;;;;;5064597;28;20039;-68
2021/09/22 12:15:57;;;;;;;7.50;2.17;;;22.00;73.90;;;;;;5065235;28;20428;-68
2021/09/22 12:18:23;;;;;;;7.15;2.92;;;22.00;71.30;;;;;;5064310;28;20486;-68
2021/09/22 12:20:49;;;;;;;7.40;2.42;;;22.00;71.30;;;;;;5067070;28;20797;-68
2021/09/22 12:23:27;;;;;;;6.85;2.10;;;21.90;70.60;;;;;;5067227;28;20024;-69
2021/09/22 12:26:09;;;;;;;4.95;2.00;;;21.60;72.00;;;;;;5065875;28;20060;-69
2021/09/22 12:28:35;;;;;;;10.65;2.28;;;21.10;73.60;;;;;;5066017;28;20106;-68
2021/09/22 12:31:11;;;;;;;6.45;1.80;;;20.90;74.70;;;;;;5063677;28;20135;-69
2021/09/22 12:33:37;;;;;;;6.50;1.83;;;20.70;76.10;;;;;;5062810;28;20044;-69
2021/09/22 12:36:10;;;;;;;9.02;2.00;;;20.50;77.10;;;;;;5068835;28;20508;-69
2021/09/22 12:38:50;;;;;;;5.78;2.22;;;20.30;78.20;;;;;;5069472;28;20025;-68
2021/09/22 12:41:21;;;;;;;11.17;2.37;;;20.00;78.70;;;;;;5069065;28;20025;-68